sensor_id;sensor_type;location;lat;lon;timestamp;P1;durP1;ratioP1;P2;durP2;ratioP2
40433;SDS011;26146;51.114;5.654;2022-10-16T00:02:02;5.82;;;1.45;;
40433;SDS011;26146;51.114;5.654;2022-10-16T00:06:03;6.82;;;1.50;;
40433;SDS011;26146;51.114;5.654;2022-10-16T00:10:04;5.35;;;1.52;;
40433;SDS011;26146;51.114;5.654;2022-10-16T00:14:07;5.18;;;1.20;;
40433;SDS011;26146;51.114;5.654;2022-10-16T00:18:12;4.13;;;1.20;;
40433;SDS011;26146;51.114;5.654;2022-10-16T00:22:14;4.63;;;1.10;;
40433;SDS011;26146;51.114;5.654;2022-10-16T00:26:16;4.78;;;1.20;;
40433;SDS011;26146;51.114;5.654;2022-10-16T00:30:18;4.65;;;1.00;;
40433;SDS011;26146;51.114;5.654;2022-10-16T00:34:18;4.78;;;1.00;;
40433;SDS011;26146;51.114;5.654;2022-10-16T00:38:22;4.10;;;1.13;;
40433;SDS011;26146;51.114;5.654;2022-10-16T00:42:23;6.22;;;1.10;;
40433;SDS011;26146;51.114;5.654;2022-10-16T00:46:25;5.32;;;1.10;;
40433;SDS011;26146;51.114;5.654;2022-10-16T00:50:35;5.75;;;0.98;;
40433;SDS011;26146;51.114;5.654;2022-10-16T00:54:36;4.43;;;1.00;;
40433;SDS011;26146;51.114;5.654;2022-10-16T00:58:37;3.70;;;0.82;;
40433;SDS011;26146;51.114;5.654;2022-10-16T01:02:38;5.90;;;1.08;;
40433;SDS011;26146;51.114;5.654;2022-10-16T01:11:16;4.78;;;1.30;;
40433;SDS011;26146;51.114;5.654;2022-10-16T01:19:40;6.53;;;1.30;;
40433;SDS011;26146;51.114;5.654;2022-10-16T01:33:24;4.10;;;1.05;;
40433;SDS011;26146;51.114;5.654;2022-10-16T01:37:35;3.83;;;1.00;;
40433;SDS011;26146;51.114;5.654;2022-10-16T01:41:44;6.63;;;1.08;;
40433;SDS011;26146;51.114;5.654;2022-10-16T01:45:52;4.25;;;1.13;;
40433;SDS011;26146;51.114;5.654;2022-10-16T01:49:53;6.25;;;1.20;;
40433;SDS011;26146;51.114;5.654;2022-10-16T01:53:57;4.65;;;1.00;;
40433;SDS011;26146;51.114;5.654;2022-10-16T01:58:00;4.40;;;1.15;;
40433;SDS011;26146;51.114;5.654;2022-10-16T02:02:06;5.72;;;0.95;;
40433;SDS011;26146;51.114;5.654;2022-10-16T02:06:09;3.42;;;0.80;;
40433;SDS011;26146;51.114;5.654;2022-10-16T02:10:10;5.07;;;0.88;;
40433;SDS011;26146;51.114;5.654;2022-10-16T02:14:11;4.07;;;0.80;;
40433;SDS011;26146;51.114;5.654;2022-10-16T02:18:15;4.05;;;0.80;;
40433;SDS011;26146;51.114;5.654;2022-10-16T02:22:18;3.67;;;0.77;;
40433;SDS011;26146;51.114;5.654;2022-10-16T02:26:28;6.18;;;1.00;;
40433;SDS011;26146;51.114;5.654;2022-10-16T02:30:49;4.15;;;1.10;;
40433;SDS011;26146;51.114;5.654;2022-10-16T02:35:10;5.32;;;1.15;;
40433;SDS011;26146;51.114;5.654;2022-10-16T02:39:12;6.07;;;1.40;;
40433;SDS011;26146;51.114;5.654;2022-10-16T02:43:13;5.25;;;1.30;;
40433;SDS011;26146;51.114;5.654;2022-10-16T02:47:17;6.95;;;1.30;;
40433;SDS011;26146;51.114;5.654;2022-10-16T02:51:20;5.32;;;1.20;;
40433;SDS011;26146;51.114;5.654;2022-10-16T02:55:21;4.95;;;1.10;;
40433;SDS011;26146;51.114;5.654;2022-10-16T02:59:22;4.45;;;1.10;;
40433;SDS011;26146;51.114;5.654;2022-10-16T03:03:23;6.15;;;1.30;;
40433;SDS011;26146;51.114;5.654;2022-10-16T03:07:24;3.97;;;1.00;;
40433;SDS011;26146;51.114;5.654;2022-10-16T03:11:25;5.40;;;1.48;;
40433;SDS011;26146;51.114;5.654;2022-10-16T03:15:26;4.82;;;1.05;;
40433;SDS011;26146;51.114;5.654;2022-10-16T03:19:28;4.97;;;1.08;;
40433;SDS011;26146;51.114;5.654;2022-10-16T03:23:29;3.70;;;0.90;;
40433;SDS011;26146;51.114;5.654;2022-10-16T03:27:30;3.85;;;1.00;;
40433;SDS011;26146;51.114;5.654;2022-10-16T03:31:31;4.25;;;1.00;;
40433;SDS011;26146;51.114;5.654;2022-10-16T03:35:32;4.80;;;1.15;;
40433;SDS011;26146;51.114;5.654;2022-10-16T03:39:33;4.70;;;0.98;;
40433;SDS011;26146;51.114;5.654;2022-10-16T03:43:34;6.07;;;1.13;;
40433;SDS011;26146;51.114;5.654;2022-10-16T03:47:35;5.53;;;1.10;;
40433;SDS011;26146;51.114;5.654;2022-10-16T03:51:36;5.65;;;1.30;;
40433;SDS011;26146;51.114;5.654;2022-10-16T03:55:37;5.13;;;1.38;;
40433;SDS011;26146;51.114;5.654;2022-10-16T03:59:38;4.80;;;1.20;;
40433;SDS011;26146;51.114;5.654;2022-10-16T04:03:39;6.22;;;1.50;;
40433;SDS011;26146;51.114;5.654;2022-10-16T04:07:40;6.47;;;1.30;;
40433;SDS011;26146;51.114;5.654;2022-10-16T04:11:41;5.22;;;1.20;;
40433;SDS011;26146;51.114;5.654;2022-10-16T04:15:44;5.80;;;1.30;;
40433;SDS011;26146;51.114;5.654;2022-10-16T04:19:48;5.07;;;1.20;;
40433;SDS011;26146;51.114;5.654;2022-10-16T04:23:51;4.03;;;1.02;;
40433;SDS011;26146;51.114;5.654;2022-10-16T04:27:52;4.30;;;1.15;;
40433;SDS011;26146;51.114;5.654;2022-10-16T04:31:54;4.45;;;1.02;;
40433;SDS011;26146;51.114;5.654;2022-10-16T04:35:58;5.82;;;1.13;;
40433;SDS011;26146;51.114;5.654;2022-10-16T04:40:03;5.97;;;1.13;;
40433;SDS011;26146;51.114;5.654;2022-10-16T04:44:04;6.95;;;1.67;;
40433;SDS011;26146;51.114;5.654;2022-10-16T04:48:05;5.65;;;1.40;;
40433;SDS011;26146;51.114;5.654;2022-10-16T04:52:08;4.57;;;1.20;;
40433;SDS011;26146;51.114;5.654;2022-10-16T04:56:09;5.72;;;1.40;;
40433;SDS011;26146;51.114;5.654;2022-10-16T05:00:10;5.88;;;1.40;;
40433;SDS011;26146;51.114;5.654;2022-10-16T05:04:11;6.35;;;1.33;;
40433;SDS011;26146;51.114;5.654;2022-10-16T05:08:15;5.20;;;1.48;;
40433;SDS011;26146;51.114;5.654;2022-10-16T05:12:17;4.80;;;1.50;;
40433;SDS011;26146;51.114;5.654;2022-10-16T05:16:18;6.60;;;1.50;;
40433;SDS011;26146;51.114;5.654;2022-10-16T05:20:19;5.22;;;1.30;;
40433;SDS011;26146;51.114;5.654;2022-10-16T05:24:20;5.95;;;1.40;;
40433;SDS011;26146;51.114;5.654;2022-10-16T05:28:21;4.55;;;1.35;;
40433;SDS011;26146;51.114;5.654;2022-10-16T05:32:22;6.28;;;2.05;;
40433;SDS011;26146;51.114;5.654;2022-10-16T05:36:25;6.10;;;1.60;;
40433;SDS011;26146;51.114;5.654;2022-10-16T05:40:25;5.22;;;1.40;;
40433;SDS011;26146;51.114;5.654;2022-10-16T05:44:26;6.30;;;1.65;;
40433;SDS011;26146;51.114;5.654;2022-10-16T05:48:27;6.75;;;1.77;;
40433;SDS011;26146;51.114;5.654;2022-10-16T05:52:28;6.20;;;1.70;;
40433;SDS011;26146;51.114;5.654;2022-10-16T05:56:29;5.95;;;1.60;;
40433;SDS011;26146;51.114;5.654;2022-10-16T06:00:30;6.28;;;1.90;;
40433;SDS011;26146;51.114;5.654;2022-10-16T06:04:31;4.80;;;1.60;;
40433;SDS011;26146;51.114;5.654;2022-10-16T06:08:32;9.73;;;4.60;;
40433;SDS011;26146;51.114;5.654;2022-10-16T06:12:33;8.20;;;3.40;;
40433;SDS011;26146;51.114;5.654;2022-10-16T06:16:36;6.22;;;2.03;;
40433;SDS011;26146;51.114;5.654;2022-10-16T06:20:37;7.95;;;3.10;;
40433;SDS011;26146;51.114;5.654;2022-10-16T06:24:38;10.77;;;4.63;;
40433;SDS011;26146;51.114;5.654;2022-10-16T06:28:40;10.85;;;6.57;;
40433;SDS011;26146;51.114;5.654;2022-10-16T06:32:41;12.82;;;7.93;;
40433;SDS011;26146;51.114;5.654;2022-10-16T06:36:42;8.15;;;3.83;;
40433;SDS011;26146;51.114;5.654;2022-10-16T06:40:43;7.97;;;4.28;;
40433;SDS011;26146;51.114;5.654;2022-10-16T06:44:44;17.05;;;9.95;;
40433;SDS011;26146;51.114;5.654;2022-10-16T06:48:45;11.68;;;6.47;;
40433;SDS011;26146;51.114;5.654;2022-10-16T06:52:46;7.45;;;2.80;;
40433;SDS011;26146;51.114;5.654;2022-10-16T06:56:47;6.97;;;3.35;;
40433;SDS011;26146;51.114;5.654;2022-10-16T07:00:48;5.72;;;2.05;;
40433;SDS011;26146;51.114;5.654;2022-10-16T07:04:55;7.03;;;2.83;;
40433;SDS011;26146;51.114;5.654;2022-10-16T07:08:57;6.97;;;1.95;;
40433;SDS011;26146;51.114;5.654;2022-10-16T07:12:58;6.55;;;2.17;;
40433;SDS011;26146;51.114;5.654;2022-10-16T07:16:59;7.40;;;2.60;;
40433;SDS011;26146;51.114;5.654;2022-10-16T07:21:06;35.10;;;17.23;;
40433;SDS011;26146;51.114;5.654;2022-10-16T07:25:12;8.85;;;3.60;;
40433;SDS011;26146;51.114;5.654;2022-10-16T07:29:14;7.55;;;2.90;;
40433;SDS011;26146;51.114;5.654;2022-10-16T07:33:17;7.43;;;3.00;;
40433;SDS011;26146;51.114;5.654;2022-10-16T07:37:18;7.10;;;2.50;;
40433;SDS011;26146;51.114;5.654;2022-10-16T07:41:19;5.72;;;2.15;;
40433;SDS011;26146;51.114;5.654;2022-10-16T07:45:20;7.22;;;3.10;;
40433;SDS011;26146;51.114;5.654;2022-10-16T07:49:21;6.55;;;1.90;;
40433;SDS011;26146;51.114;5.654;2022-10-16T07:53:22;5.80;;;2.10;;
40433;SDS011;26146;51.114;5.654;2022-10-16T07:57:23;5.72;;;2.03;;
40433;SDS011;26146;51.114;5.654;2022-10-16T08:01:23;8.35;;;2.20;;
40433;SDS011;26146;51.114;5.654;2022-10-16T08:05:24;8.60;;;3.10;;
40433;SDS011;26146;51.114;5.654;2022-10-16T08:09:29;6.67;;;1.90;;
40433;SDS011;26146;51.114;5.654;2022-10-16T08:13:30;5.63;;;1.52;;
40433;SDS011;26146;51.114;5.654;2022-10-16T08:17:33;6.53;;;1.20;;
40433;SDS011;26146;51.114;5.654;2022-10-16T08:21:34;7.63;;;1.20;;
40433;SDS011;26146;51.114;5.654;2022-10-16T08:25:35;5.22;;;1.00;;
40433;SDS011;26146;51.114;5.654;2022-10-16T08:29:37;5.80;;;1.20;;
40433;SDS011;26146;51.114;5.654;2022-10-16T08:33:39;5.10;;;0.93;;
40433;SDS011;26146;51.114;5.654;2022-10-16T08:37:42;9.48;;;2.40;;
40433;SDS011;26146;51.114;5.654;2022-10-16T08:50:10;7.13;;;1.50;;
40433;SDS011;26146;51.114;5.654;2022-10-16T08:54:28;3.78;;;1.00;;
40433;SDS011;26146;51.114;5.654;2022-10-16T08:58:42;7.20;;;1.70;;
40433;SDS011;26146;51.114;5.654;2022-10-16T09:02:45;4.38;;;0.90;;
40433;SDS011;26146;51.114;5.654;2022-10-16T09:07:12;4.68;;;1.10;;
40433;SDS011;26146;51.114;5.654;2022-10-16T09:24:30;5.95;;;1.00;;
40433;SDS011;26146;51.114;5.654;2022-10-16T09:28:31;6.55;;;0.70;;
40433;SDS011;26146;51.114;5.654;2022-10-16T09:32:32;5.60;;;0.75;;
40433;SDS011;26146;51.114;5.654;2022-10-16T09:36:36;6.40;;;0.98;;
40433;SDS011;26146;51.114;5.654;2022-10-16T09:40:42;3.78;;;0.70;;
40433;SDS011;26146;51.114;5.654;2022-10-16T09:44:46;4.60;;;0.77;;
40433;SDS011;26146;51.114;5.654;2022-10-16T09:48:49;4.30;;;0.65;;
40433;SDS011;26146;51.114;5.654;2022-10-16T09:53:38;7.18;;;0.90;;
40433;SDS011;26146;51.114;5.654;2022-10-16T09:57:23;4.63;;;0.73;;
40433;SDS011;26146;51.114;5.654;2022-10-16T10:01:28;7.13;;;0.70;;
40433;SDS011;26146;51.114;5.654;2022-10-16T10:05:47;4.68;;;0.60;;
40433;SDS011;26146;51.114;5.654;2022-10-16T10:09:49;3.97;;;0.68;;
40433;SDS011;26146;51.114;5.654;2022-10-16T10:13:50;4.65;;;0.60;;
40433;SDS011;26146;51.114;5.654;2022-10-16T10:17:55;5.07;;;0.80;;
40433;SDS011;26146;51.114;5.654;2022-10-16T10:21:57;5.30;;;0.95;;
40433;SDS011;26146;51.114;5.654;2022-10-16T10:31:20;5.35;;;0.93;;
40433;SDS011;26146;51.114;5.654;2022-10-16T10:39:23;4.00;;;0.60;;
40433;SDS011;26146;51.114;5.654;2022-10-16T10:48:06;3.28;;;0.40;;
40433;SDS011;26146;51.114;5.654;2022-10-16T11:08:55;4.05;;;0.60;;
40433;SDS011;26146;51.114;5.654;2022-10-16T11:13:00;4.72;;;0.55;;
40433;SDS011;26146;51.114;5.654;2022-10-16T11:17:42;4.95;;;0.77;;
40433;SDS011;26146;51.114;5.654;2022-10-16T11:21:54;4.28;;;0.57;;
40433;SDS011;26146;51.114;5.654;2022-10-16T11:26:19;3.75;;;0.60;;
40433;SDS011;26146;51.114;5.654;2022-10-16T11:30:31;4.05;;;0.50;;
40433;SDS011;26146;51.114;5.654;2022-10-16T11:34:42;3.33;;;0.52;;
40433;SDS011;26146;51.114;5.654;2022-10-16T11:42:57;2.80;;;0.47;;
40433;SDS011;26146;51.114;5.654;2022-10-16T11:47:35;4.80;;;0.47;;
40433;SDS011;26146;51.114;5.654;2022-10-16T11:51:45;3.83;;;0.63;;
40433;SDS011;26146;51.114;5.654;2022-10-16T11:55:58;3.95;;;0.90;;
40433;SDS011;26146;51.114;5.654;2022-10-16T12:08:34;5.10;;;0.60;;
40433;SDS011;26146;51.114;5.654;2022-10-16T12:16:53;3.33;;;0.60;;
40433;SDS011;26146;51.114;5.654;2022-10-16T12:20:57;4.32;;;0.50;;
40433;SDS011;26146;51.114;5.654;2022-10-16T12:25:17;3.90;;;0.60;;
40433;SDS011;26146;51.114;5.654;2022-10-16T12:29:33;2.72;;;0.50;;
40433;SDS011;26146;51.114;5.654;2022-10-16T12:33:39;5.20;;;0.65;;
40433;SDS011;26146;51.114;5.654;2022-10-16T12:37:41;3.78;;;0.47;;
40433;SDS011;26146;51.114;5.654;2022-10-16T12:41:43;3.38;;;0.60;;
40433;SDS011;26146;51.114;5.654;2022-10-16T12:45:44;4.80;;;0.52;;
40433;SDS011;26146;51.114;5.654;2022-10-16T12:49:53;2.85;;;0.40;;
40433;SDS011;26146;51.114;5.654;2022-10-16T13:06:40;5.28;;;0.60;;
40433;SDS011;26146;51.114;5.654;2022-10-16T13:15:19;3.03;;;0.57;;
40433;SDS011;26146;51.114;5.654;2022-10-16T13:19:50;5.95;;;0.60;;
40433;SDS011;26146;51.114;5.654;2022-10-16T13:28:12;6.00;;;0.73;;
40433;SDS011;26146;51.114;5.654;2022-10-16T13:32:14;4.00;;;0.60;;
40433;SDS011;26146;51.114;5.654;2022-10-16T13:36:35;4.32;;;0.60;;
40433;SDS011;26146;51.114;5.654;2022-10-16T13:44:54;4.55;;;0.50;;
40433;SDS011;26146;51.114;5.654;2022-10-16T13:49:00;3.47;;;0.50;;
40433;SDS011;26146;51.114;5.654;2022-10-16T13:53:06;3.88;;;0.50;;
40433;SDS011;26146;51.114;5.654;2022-10-16T13:57:07;3.30;;;0.52;;
40433;SDS011;26146;51.114;5.654;2022-10-16T14:05:28;3.47;;;0.68;;
40433;SDS011;26146;51.114;5.654;2022-10-16T14:09:29;3.30;;;0.50;;
40433;SDS011;26146;51.114;5.654;2022-10-16T14:13:36;2.88;;;0.40;;
40433;SDS011;26146;51.114;5.654;2022-10-16T14:17:42;4.90;;;0.82;;
40433;SDS011;26146;51.114;5.654;2022-10-16T14:21:46;5.35;;;1.00;;
40433;SDS011;26146;51.114;5.654;2022-10-16T14:25:47;4.25;;;0.90;;
40433;SDS011;26146;51.114;5.654;2022-10-16T14:29:48;4.45;;;0.70;;
40433;SDS011;26146;51.114;5.654;2022-10-16T14:33:49;3.55;;;0.63;;
40433;SDS011;26146;51.114;5.654;2022-10-16T14:37:53;8.10;;;1.20;;
40433;SDS011;26146;51.114;5.654;2022-10-16T14:41:56;10.60;;;4.20;;
40433;SDS011;26146;51.114;5.654;2022-10-16T14:45:58;4.88;;;0.90;;
40433;SDS011;26146;51.114;5.654;2022-10-16T14:49:59;9.95;;;3.47;;
40433;SDS011;26146;51.114;5.654;2022-10-16T14:54:00;9.73;;;3.72;;
40433;SDS011;26146;51.114;5.654;2022-10-16T14:58:02;6.95;;;1.60;;
40433;SDS011;26146;51.114;5.654;2022-10-16T15:02:09;6.00;;;1.20;;
40433;SDS011;26146;51.114;5.654;2022-10-16T15:06:16;6.18;;;0.93;;
40433;SDS011;26146;51.114;5.654;2022-10-16T15:10:17;4.78;;;0.80;;
40433;SDS011;26146;51.114;5.654;2022-10-16T15:14:21;4.18;;;0.80;;
40433;SDS011;26146;51.114;5.654;2022-10-16T15:18:22;4.03;;;0.60;;
40433;SDS011;26146;51.114;5.654;2022-10-16T15:22:23;3.13;;;0.50;;
40433;SDS011;26146;51.114;5.654;2022-10-16T15:26:25;2.85;;;0.40;;
40433;SDS011;26146;51.114;5.654;2022-10-16T15:30:27;4.00;;;0.57;;
40433;SDS011;26146;51.114;5.654;2022-10-16T15:34:28;3.22;;;0.60;;
40433;SDS011;26146;51.114;5.654;2022-10-16T15:38:29;3.30;;;0.60;;
40433;SDS011;26146;51.114;5.654;2022-10-16T15:42:30;4.00;;;0.60;;
40433;SDS011;26146;51.114;5.654;2022-10-16T15:46:31;8.02;;;1.55;;
40433;SDS011;26146;51.114;5.654;2022-10-16T15:50:34;7.53;;;2.53;;
40433;SDS011;26146;51.114;5.654;2022-10-16T15:54:37;6.35;;;1.70;;
40433;SDS011;26146;51.114;5.654;2022-10-16T15:58:38;5.45;;;1.23;;
40433;SDS011;26146;51.114;5.654;2022-10-16T16:02:40;5.55;;;1.10;;
40433;SDS011;26146;51.114;5.654;2022-10-16T16:06:42;5.45;;;1.10;;
40433;SDS011;26146;51.114;5.654;2022-10-16T16:10:44;6.47;;;1.13;;
40433;SDS011;26146;51.114;5.654;2022-10-16T16:14:45;7.90;;;1.20;;
40433;SDS011;26146;51.114;5.654;2022-10-16T16:18:52;9.30;;;2.88;;
40433;SDS011;26146;51.114;5.654;2022-10-16T16:22:56;10.93;;;4.22;;
40433;SDS011;26146;51.114;5.654;2022-10-16T16:26:56;11.82;;;5.40;;
40433;SDS011;26146;51.114;5.654;2022-10-16T16:30:57;6.72;;;2.00;;
40433;SDS011;26146;51.114;5.654;2022-10-16T16:34:58;6.35;;;1.70;;
40433;SDS011;26146;51.114;5.654;2022-10-16T16:38:59;7.22;;;1.45;;
40433;SDS011;26146;51.114;5.654;2022-10-16T16:43:02;6.38;;;1.70;;
40433;SDS011;26146;51.114;5.654;2022-10-16T16:47:04;4.88;;;1.35;;
40433;SDS011;26146;51.114;5.654;2022-10-16T16:51:09;6.55;;;2.33;;
40433;SDS011;26146;51.114;5.654;2022-10-16T16:55:16;7.65;;;1.90;;
40433;SDS011;26146;51.114;5.654;2022-10-16T16:59:18;7.30;;;2.20;;
40433;SDS011;26146;51.114;5.654;2022-10-16T17:03:20;8.90;;;2.42;;
40433;SDS011;26146;51.114;5.654;2022-10-16T17:07:21;10.27;;;2.58;;
40433;SDS011;26146;51.114;5.654;2022-10-16T17:11:23;7.85;;;3.17;;
40433;SDS011;26146;51.114;5.654;2022-10-16T17:15:26;10.70;;;4.05;;
40433;SDS011;26146;51.114;5.654;2022-10-16T17:19:27;9.93;;;3.47;;
40433;SDS011;26146;51.114;5.654;2022-10-16T17:23:28;10.00;;;3.63;;
40433;SDS011;26146;51.114;5.654;2022-10-16T17:27:29;9.40;;;3.67;;
40433;SDS011;26146;51.114;5.654;2022-10-16T17:31:31;13.30;;;6.03;;
40433;SDS011;26146;51.114;5.654;2022-10-16T17:35:37;15.85;;;7.32;;
40433;SDS011;26146;51.114;5.654;2022-10-16T17:39:42;12.32;;;6.70;;
40433;SDS011;26146;51.114;5.654;2022-10-16T17:43:43;13.32;;;5.95;;
40433;SDS011;26146;51.114;5.654;2022-10-16T17:47:44;12.95;;;6.20;;
40433;SDS011;26146;51.114;5.654;2022-10-16T17:51:44;14.48;;;6.35;;
40433;SDS011;26146;51.114;5.654;2022-10-16T17:55:48;12.07;;;5.50;;
40433;SDS011;26146;51.114;5.654;2022-10-16T17:59:56;9.85;;;4.80;;
40433;SDS011;26146;51.114;5.654;2022-10-16T18:03:58;8.10;;;2.40;;
40433;SDS011;26146;51.114;5.654;2022-10-16T18:12:02;6.80;;;1.95;;
40433;SDS011;26146;51.114;5.654;2022-10-16T18:16:05;9.70;;;2.38;;
40433;SDS011;26146;51.114;5.654;2022-10-16T18:20:11;8.05;;;2.35;;
40433;SDS011;26146;51.114;5.654;2022-10-16T18:24:11;8.02;;;2.53;;
40433;SDS011;26146;51.114;5.654;2022-10-16T18:28:15;26.98;;;10.77;;
40433;SDS011;26146;51.114;5.654;2022-10-16T18:32:16;19.90;;;8.23;;
40433;SDS011;26146;51.114;5.654;2022-10-16T18:36:18;21.50;;;9.02;;
40433;SDS011;26146;51.114;5.654;2022-10-16T18:40:21;18.37;;;8.10;;
40433;SDS011;26146;51.114;5.654;2022-10-16T18:44:22;14.68;;;6.63;;
40433;SDS011;26146;51.114;5.654;2022-10-16T18:48:23;12.75;;;5.88;;
40433;SDS011;26146;51.114;5.654;2022-10-16T18:52:27;10.02;;;4.70;;
40433;SDS011;26146;51.114;5.654;2022-10-16T18:56:31;11.27;;;4.95;;
40433;SDS011;26146;51.114;5.654;2022-10-16T19:00:32;10.45;;;4.55;;
40433;SDS011;26146;51.114;5.654;2022-10-16T19:04:33;10.45;;;4.43;;
40433;SDS011;26146;51.114;5.654;2022-10-16T19:08:35;11.73;;;5.28;;
40433;SDS011;26146;51.114;5.654;2022-10-16T19:12:38;12.52;;;5.93;;
40433;SDS011;26146;51.114;5.654;2022-10-16T19:16:40;11.98;;;6.47;;
40433;SDS011;26146;51.114;5.654;2022-10-16T19:20:42;15.18;;;7.78;;
40433;SDS011;26146;51.114;5.654;2022-10-16T19:24:43;14.45;;;8.52;;
40433;SDS011;26146;51.114;5.654;2022-10-16T19:28:44;16.10;;;10.13;;
40433;SDS011;26146;51.114;5.654;2022-10-16T19:32:45;15.10;;;9.63;;
40433;SDS011;26146;51.114;5.654;2022-10-16T19:36:51;20.77;;;11.68;;
40433;SDS011;26146;51.114;5.654;2022-10-16T19:40:52;18.88;;;13.65;;
40433;SDS011;26146;51.114;5.654;2022-10-16T19:44:53;22.73;;;14.35;;
40433;SDS011;26146;51.114;5.654;2022-10-16T19:48:55;17.27;;;12.52;;
40433;SDS011;26146;51.114;5.654;2022-10-16T19:52:58;15.98;;;10.70;;
40433;SDS011;26146;51.114;5.654;2022-10-16T19:56:59;16.63;;;10.35;;
40433;SDS011;26146;51.114;5.654;2022-10-16T20:01:01;14.73;;;8.85;;
40433;SDS011;26146;51.114;5.654;2022-10-16T20:05:01;17.80;;;12.13;;
40433;SDS011;26146;51.114;5.654;2022-10-16T20:09:03;25.17;;;16.27;;
40433;SDS011;26146;51.114;5.654;2022-10-16T20:13:04;24.73;;;19.15;;
40433;SDS011;26146;51.114;5.654;2022-10-16T20:17:07;26.73;;;20.92;;
40433;SDS011;26146;51.114;5.654;2022-10-16T20:21:11;22.23;;;15.90;;
40433;SDS011;26146;51.114;5.654;2022-10-16T20:25:14;17.35;;;12.55;;
40433;SDS011;26146;51.114;5.654;2022-10-16T20:29:15;15.30;;;10.93;;
40433;SDS011;26146;51.114;5.654;2022-10-16T20:33:16;14.95;;;9.93;;
40433;SDS011;26146;51.114;5.654;2022-10-16T20:37:20;16.70;;;9.40;;
40433;SDS011;26146;51.114;5.654;2022-10-16T20:45:25;13.02;;;7.00;;
40433;SDS011;26146;51.114;5.654;2022-10-16T20:49:26;12.60;;;7.30;;
40433;SDS011;26146;51.114;5.654;2022-10-16T20:53:30;14.25;;;7.47;;
40433;SDS011;26146;51.114;5.654;2022-10-16T20:57:31;13.93;;;7.47;;
40433;SDS011;26146;51.114;5.654;2022-10-16T21:01:32;13.07;;;6.95;;
40433;SDS011;26146;51.114;5.654;2022-10-16T21:05:38;13.60;;;7.13;;
40433;SDS011;26146;51.114;5.654;2022-10-16T21:13:41;11.77;;;6.20;;
40433;SDS011;26146;51.114;5.654;2022-10-16T21:17:43;11.50;;;6.07;;
40433;SDS011;26146;51.114;5.654;2022-10-16T21:21:43;12.30;;;5.97;;
40433;SDS011;26146;51.114;5.654;2022-10-16T21:25:48;12.15;;;6.10;;
40433;SDS011;26146;51.114;5.654;2022-10-16T21:29:52;11.80;;;6.13;;
40433;SDS011;26146;51.114;5.654;2022-10-16T21:33:53;11.27;;;5.95;;
40433;SDS011;26146;51.114;5.654;2022-10-16T21:37:55;12.07;;;6.68;;
40433;SDS011;26146;51.114;5.654;2022-10-16T21:41:56;12.30;;;6.60;;
40433;SDS011;26146;51.114;5.654;2022-10-16T21:45:57;11.80;;;6.50;;
40433;SDS011;26146;51.114;5.654;2022-10-16T21:49:58;11.70;;;6.22;;
40433;SDS011;26146;51.114;5.654;2022-10-16T21:53:59;10.88;;;6.00;;
40433;SDS011;26146;51.114;5.654;2022-10-16T21:58:02;13.25;;;6.30;;
40433;SDS011;26146;51.114;5.654;2022-10-16T22:02:02;13.38;;;6.95;;
40433;SDS011;26146;51.114;5.654;2022-10-16T22:06:05;12.02;;;6.78;;
40433;SDS011;26146;51.114;5.654;2022-10-16T22:10:07;12.82;;;6.80;;
40433;SDS011;26146;51.114;5.654;2022-10-16T22:14:13;12.82;;;7.45;;
40433;SDS011;26146;51.114;5.654;2022-10-16T22:18:15;10.73;;;6.25;;
40433;SDS011;26146;51.114;5.654;2022-10-16T22:22:16;11.68;;;6.68;;
40433;SDS011;26146;51.114;5.654;2022-10-16T22:26:20;12.23;;;6.40;;
40433;SDS011;26146;51.114;5.654;2022-10-16T22:30:21;11.60;;;6.05;;
40433;SDS011;26146;51.114;5.654;2022-10-16T22:34:22;12.00;;;5.78;;
40433;SDS011;26146;51.114;5.654;2022-10-16T22:38:23;11.20;;;6.20;;
40433;SDS011;26146;51.114;5.654;2022-10-16T22:42:24;10.85;;;5.45;;
40433;SDS011;26146;51.114;5.654;2022-10-16T22:46:26;9.88;;;5.55;;
40433;SDS011;26146;51.114;5.654;2022-10-16T22:50:28;10.00;;;5.20;;
40433;SDS011;26146;51.114;5.654;2022-10-16T22:54:29;10.15;;;5.20;;
40433;SDS011;26146;51.114;5.654;2022-10-16T22:58:30;10.27;;;5.70;;
40433;SDS011;26146;51.114;5.654;2022-10-16T23:02:31;8.48;;;4.68;;
40433;SDS011;26146;51.114;5.654;2022-10-16T23:06:33;8.60;;;4.53;;
40433;SDS011;26146;51.114;5.654;2022-10-16T23:10:37;8.93;;;4.63;;
40433;SDS011;26146;51.114;5.654;2022-10-16T23:14:39;9.30;;;4.70;;
40433;SDS011;26146;51.114;5.654;2022-10-16T23:18:40;9.20;;;4.80;;
40433;SDS011;26146;51.114;5.654;2022-10-16T23:22:41;9.90;;;5.25;;
40433;SDS011;26146;51.114;5.654;2022-10-16T23:26:42;10.02;;;5.07;;
40433;SDS011;26146;51.114;5.654;2022-10-16T23:30:43;10.25;;;5.20;;
40433;SDS011;26146;51.114;5.654;2022-10-16T23:34:45;9.63;;;5.03;;
40433;SDS011;26146;51.114;5.654;2022-10-16T23:38:46;11.25;;;5.10;;
40433;SDS011;26146;51.114;5.654;2022-10-16T23:42:48;8.52;;;4.63;;
40433;SDS011;26146;51.114;5.654;2022-10-16T23:46:49;8.68;;;4.55;;
40433;SDS011;26146;51.114;5.654;2022-10-16T23:50:50;9.23;;;4.53;;
40433;SDS011;26146;51.114;5.654;2022-10-16T23:54:51;8.30;;;4.43;;
40433;SDS011;26146;51.114;5.654;2022-10-16T23:58:52;9.98;;;5.10;;
